createdAt,value
2017-11-29T00:00:09.192Z,929.75
2017-11-29T00:00:22.320Z,929.73
2017-11-29T00:00:35.472Z,929.75
2017-11-29T00:00:48.626Z,929.83
2017-11-29T00:01:01.802Z,929.8
2017-11-29T00:01:14.438Z,929.76
2017-11-29T00:01:27.805Z,929.83
2017-11-29T00:01:40.955Z,929.76
2017-11-29T00:01:53.582Z,929.77
2017-11-29T00:02:06.221Z,929.8
2017-11-29T00:02:19.390Z,929.76
2017-11-29T00:02:32.593Z,929.78
2017-11-29T00:02:45.241Z,929.83
2017-11-29T00:02:57.889Z,929.79
2017-11-29T00:03:11.016Z,929.8
2017-11-29T00:03:24.112Z,929.88
2017-11-29T00:03:36.715Z,929.84
2017-11-29T00:03:48.883Z,929.85
2017-11-29T00:04:01.993Z,929.77
2017-11-29T00:04:14.621Z,929.81
2017-11-29T00:04:27.244Z,929.86
2017-11-29T00:04:40.323Z,929.84
2017-11-29T00:04:53.484Z,929.87
2017-11-29T00:05:06.155Z,929.92
2017-11-29T00:05:19.314Z,929.87
2017-11-29T00:05:32.455Z,929.86
2017-11-29T00:05:45.617Z,929.9
2017-11-29T00:05:58.300Z,929.85
2017-11-29T00:06:11.408Z,929.86
2017-11-29T00:06:24.828Z,929.9
2017-11-29T00:06:37.424Z,929.85
2017-11-29T00:06:50.562Z,929.87
2017-11-29T00:07:02.695Z,929.82
2017-11-29T00:07:15.334Z,929.88
2017-11-29T00:07:28.523Z,929.86
2017-11-29T00:07:41.198Z,929.91
2017-11-29T00:07:54.347Z,929.93
2017-11-29T00:08:07.507Z,929.87
2017-11-29T00:08:20.117Z,929.87
2017-11-29T00:08:33.219Z,929.87
2017-11-29T00:08:45.843Z,929.92
2017-11-29T00:08:59.000Z,929.88
2017-11-29T00:09:12.117Z,929.9
2017-11-29T00:09:25.228Z,929.86
2017-11-29T00:09:38.414Z,929.94
2017-11-29T00:09:51.533Z,929.84
2017-11-29T00:10:04.177Z,929.84
2017-11-29T00:10:16.824Z,929.93
2017-11-29T00:10:30.587Z,929.85
2017-11-29T00:10:43.723Z,929.87
2017-11-29T00:10:56.815Z,929.88
2017-11-29T00:11:09.399Z,929.88
2017-11-29T00:11:22.079Z,929.86
2017-11-29T00:11:35.245Z,929.87
2017-11-29T00:11:48.386Z,930.01
2017-11-29T00:12:01.450Z,929.87
2017-11-29T00:12:14.088Z,929.86
2017-11-29T00:12:26.765Z,929.87
2017-11-29T00:12:39.887Z,929.83
2017-11-29T00:12:53.145Z,929.94
2017-11-29T00:13:05.881Z,929.92
2017-11-29T00:13:18.990Z,929.86
2017-11-29T00:13:32.144Z,929.98
2017-11-29T00:13:45.452Z,929.9
2017-11-29T00:13:58.623Z,929.86
2017-11-29T00:14:11.247Z,929.85
2017-11-29T00:14:23.935Z,929.82
2017-11-29T00:14:37.050Z,929.82
2017-11-29T00:14:50.166Z,929.82
2017-11-29T00:15:03.288Z,929.84
2017-11-29T00:15:15.971Z,929.86
2017-11-29T00:15:29.150Z,929.86
2017-11-29T00:15:42.534Z,929.85
2017-11-29T00:15:55.626Z,929.86
2017-11-29T00:16:08.331Z,929.88
2017-11-29T00:16:20.040Z,929.83
2017-11-29T00:16:32.615Z,929.91
2017-11-29T00:16:45.265Z,929.88
2017-11-29T00:16:58.423Z,929.82
2017-11-29T00:17:11.566Z,929.84
2017-11-29T00:17:24.645Z,929.79
2017-11-29T00:17:37.296Z,929.81
2017-11-29T00:17:50.452Z,929.85
2017-11-29T00:18:03.584Z,929.82
2017-11-29T00:18:16.755Z,929.79
2017-11-29T00:18:29.445Z,929.82
2017-11-29T00:18:41.590Z,929.82
2017-11-29T00:18:54.744Z,929.83
2017-11-29T00:19:07.859Z,929.85
2017-11-29T00:19:21.001Z,929.84
2017-11-29T00:19:34.065Z,929.87
2017-11-29T00:19:46.230Z,929.83
2017-11-29T00:19:59.314Z,929.85
2017-11-29T00:20:12.449Z,929.87
2017-11-29T00:20:25.640Z,929.9
2017-11-29T00:20:38.766Z,929.9
2017-11-29T00:20:51.885Z,929.93
2017-11-29T00:21:04.534Z,929.91
2017-11-29T00:21:17.664Z,929.9
2017-11-29T00:21:31.458Z,929.94
2017-11-29T00:21:44.584Z,929.97
2017-11-29T00:21:57.765Z,929.94
2017-11-29T00:22:10.380Z,929.95
2017-11-29T00:22:23.516Z,930.06
2017-11-29T00:22:36.689Z,929.96
2017-11-29T00:22:49.835Z,929.99
2017-11-29T00:23:02.470Z,929.99
2017-11-29T00:23:15.565Z,930.05
2017-11-29T00:23:28.204Z,930.05
2017-11-29T00:23:41.345Z,930.02
2017-11-29T00:23:54.489Z,930.06
2017-11-29T00:24:07.169Z,930.06
2017-11-29T00:24:19.772Z,930.11
2017-11-29T00:24:32.905Z,930.09
2017-11-29T00:24:46.026Z,930.1
2017-11-29T00:24:58.638Z,930.06
2017-11-29T00:25:11.762Z,930.17
2017-11-29T00:25:24.905Z,930.15
2017-11-29T00:25:38.019Z,930.08
2017-11-29T00:25:50.710Z,930.11
2017-11-29T00:26:03.846Z,930
2017-11-29T00:26:16.978Z,930.2
2017-11-29T00:26:30.140Z,930.15
2017-11-29T00:26:43.288Z,930.09
2017-11-29T00:26:55.911Z,930.17
2017-11-29T00:27:09.078Z,930.13
2017-11-29T00:27:21.793Z,930.13
2017-11-29T00:27:34.950Z,930.12
2017-11-29T00:27:48.026Z,930.16
2017-11-29T00:28:01.128Z,930.16
2017-11-29T00:28:14.228Z,930.16
2017-11-29T00:28:27.275Z,930.14
2017-11-29T00:28:40.431Z,930.14
2017-11-29T00:28:53.564Z,930.12
2017-11-29T00:29:06.442Z,930.16
2017-11-29T00:29:19.647Z,930.17
2017-11-29T00:29:32.803Z,930.17
2017-11-29T00:29:45.411Z,930.16
2017-11-29T00:29:58.529Z,930.16
2017-11-29T00:30:11.205Z,930.11
2017-11-29T00:30:24.318Z,930.16
2017-11-29T00:30:37.412Z,930.14
2017-11-29T00:30:50.093Z,930.16
2017-11-29T00:31:03.222Z,930.18
2017-11-29T00:31:16.342Z,930.09
2017-11-29T00:31:29.700Z,930.18
2017-11-29T00:31:42.801Z,930.18
2017-11-29T00:31:55.973Z,930.18
2017-11-29T00:32:09.132Z,930.19
2017-11-29T00:32:22.270Z,930.26
2017-11-29T00:32:35.443Z,930.15
2017-11-29T00:32:48.515Z,930.14
2017-11-29T00:33:01.667Z,930.17
2017-11-29T00:33:14.835Z,930.24
2017-11-29T00:33:27.973Z,930.16
2017-11-29T00:33:41.110Z,930.18
2017-11-29T00:33:54.199Z,930.1
2017-11-29T00:34:07.312Z,930.17
2017-11-29T00:34:20.382Z,930.1
2017-11-29T00:34:33.529Z,930.1
2017-11-29T00:34:46.153Z,930.19
2017-11-29T00:34:59.326Z,930.16
2017-11-29T00:35:11.955Z,930.18
2017-11-29T00:35:24.592Z,930.14
2017-11-29T00:35:37.706Z,930.11
2017-11-29T00:35:50.861Z,930.12
2017-11-29T00:36:04.023Z,930.16
2017-11-29T00:36:17.119Z,930.11
2017-11-29T00:36:29.285Z,930.13
2017-11-29T00:36:42.724Z,930.33
2017-11-29T00:36:55.816Z,930.26
2017-11-29T00:37:08.952Z,930.43
2017-11-29T00:37:21.593Z,930.24
2017-11-29T00:37:34.706Z,930.22
2017-11-29T00:37:47.361Z,930.21
2017-11-29T00:38:00.471Z,930.24
2017-11-29T00:38:13.562Z,930.39
2017-11-29T00:38:26.716Z,930.33
2017-11-29T00:38:38.894Z,930.24
2017-11-29T00:38:52.016Z,930.27
2017-11-29T00:39:04.685Z,930.35
2017-11-29T00:39:17.346Z,930.3
2017-11-29T00:39:30.522Z,930.3
2017-11-29T00:39:43.681Z,930.29
2017-11-29T00:39:56.778Z,930.27
2017-11-29T00:40:09.937Z,930.22
2017-11-29T00:40:22.613Z,930.26
2017-11-29T00:40:35.708Z,930.29
2017-11-29T00:40:48.877Z,930.18
2017-11-29T00:41:01.557Z,930.23
2017-11-29T00:41:14.645Z,930.38
2017-11-29T00:41:27.768Z,930.34
2017-11-29T00:41:40.890Z,930.28
2017-11-29T00:41:54.059Z,930.25
2017-11-29T00:42:07.226Z,930.32
2017-11-29T00:42:19.848Z,930.22
2017-11-29T00:42:32.997Z,930.19
2017-11-29T00:42:46.146Z,930.19
2017-11-29T00:42:59.261Z,930.21
2017-11-29T00:43:12.415Z,930.24
2017-11-29T00:43:25.544Z,930.24
2017-11-29T00:43:38.725Z,930.23
2017-11-29T00:43:51.794Z,930.23
2017-11-29T00:44:04.937Z,930.17
2017-11-29T00:44:17.611Z,930.18
2017-11-29T00:44:30.751Z,930.19
2017-11-29T00:44:43.832Z,930.19
2017-11-29T00:44:56.982Z,930.18
2017-11-29T00:45:10.098Z,930.21
2017-11-29T00:45:22.779Z,930.19
2017-11-29T00:45:35.881Z,930.25
2017-11-29T00:45:49.068Z,930.27
2017-11-29T00:46:01.685Z,930.22
2017-11-29T00:46:14.769Z,930.2
2017-11-29T00:46:27.899Z,930.13
2017-11-29T00:46:41.054Z,930.2
2017-11-29T00:46:54.153Z,930.15
2017-11-29T00:47:06.807Z,930.17
2017-11-29T00:47:19.849Z,930.2
2017-11-29T00:47:32.986Z,930.21
2017-11-29T00:47:45.644Z,930.2
2017-11-29T00:47:58.809Z,930.15
2017-11-29T00:48:11.458Z,930.23
2017-11-29T00:48:24.064Z,930.21
2017-11-29T00:48:37.207Z,930.19
2017-11-29T00:48:50.354Z,930.18
2017-11-29T00:49:02.926Z,930.23
2017-11-29T00:49:16.072Z,930.21
2017-11-29T00:49:29.302Z,930.19
2017-11-29T00:49:42.468Z,930.22
2017-11-29T00:49:54.638Z,930.33
2017-11-29T00:50:07.886Z,930.26
2017-11-29T00:50:21.003Z,930.21
2017-11-29T00:50:33.637Z,930.23
2017-11-29T00:50:46.322Z,930.24
2017-11-29T00:50:58.939Z,930.18
2017-11-29T00:51:12.079Z,930.21
2017-11-29T00:51:25.196Z,930.24
2017-11-29T00:51:38.562Z,930.21
2017-11-29T00:51:51.248Z,930.23
2017-11-29T00:52:04.342Z,930.22
2017-11-29T00:52:16.952Z,930.23
2017-11-29T00:52:30.076Z,930.23
2017-11-29T00:52:42.748Z,930.23
2017-11-29T00:52:55.400Z,930.22
2017-11-29T00:53:08.023Z,930.24
2017-11-29T00:53:21.190Z,930.25
2017-11-29T00:53:34.329Z,930.28
2017-11-29T00:53:47.426Z,930.31
2017-11-29T00:54:00.025Z,930.21
2017-11-29T00:54:13.126Z,930.34
2017-11-29T00:54:26.264Z,930.31
2017-11-29T00:54:39.364Z,930.35
2017-11-29T00:54:52.001Z,930.41
2017-11-29T00:55:04.661Z,930.35
2017-11-29T00:55:17.801Z,930.33
2017-11-29T00:55:31.002Z,930.35
2017-11-29T00:55:44.144Z,930.28
2017-11-29T00:55:57.300Z,930.35
2017-11-29T00:56:10.380Z,930.35
2017-11-29T00:56:22.997Z,930.33
2017-11-29T00:56:35.663Z,930.32
2017-11-29T00:56:48.801Z,930.31
2017-11-29T00:57:01.420Z,930.38
2017-11-29T00:57:14.526Z,930.31
2017-11-29T00:57:27.673Z,930.32
2017-11-29T00:57:40.790Z,930.39
2017-11-29T00:57:53.974Z,930.36
2017-11-29T00:58:07.068Z,930.33
2017-11-29T00:58:19.735Z,930.33
2017-11-29T00:58:32.924Z,930.4
2017-11-29T00:58:46.103Z,930.37
2017-11-29T00:58:59.202Z,930.32
2017-11-29T00:59:12.334Z,930.37
2017-11-29T00:59:25.458Z,930.37
2017-11-29T00:59:38.638Z,930.42
2017-11-29T00:59:51.799Z,930.52
2017-11-29T01:00:04.447Z,930.4
2017-11-29T01:00:17.587Z,930.45
2017-11-29T01:00:30.726Z,930.34
2017-11-29T01:00:43.923Z,930.42
2017-11-29T01:00:57.066Z,930.45
2017-11-29T01:01:10.173Z,930.45
2017-11-29T01:01:23.305Z,930.4
2017-11-29T01:01:35.957Z,930.43
2017-11-29T01:01:49.372Z,930.45
2017-11-29T01:02:02.028Z,930.51
2017-11-29T01:02:15.114Z,930.45
2017-11-29T01:02:28.264Z,930.46
2017-11-29T01:02:40.943Z,930.42
2017-11-29T01:02:54.078Z,930.46
2017-11-29T01:03:06.686Z,930.38
2017-11-29T01:03:19.803Z,930.47
2017-11-29T01:03:32.987Z,930.44
2017-11-29T01:03:46.102Z,930.47
2017-11-29T01:03:58.766Z,930.63
2017-11-29T01:04:11.979Z,930.41
2017-11-29T01:04:24.704Z,930.54
2017-11-29T01:04:37.911Z,930.43
2017-11-29T01:04:51.039Z,930.42
2017-11-29T01:05:03.719Z,930.39
2017-11-29T01:05:16.374Z,930.45
2017-11-29T01:05:29.546Z,930.4
2017-11-29T01:05:42.717Z,930.4
2017-11-29T01:05:55.988Z,930.4
2017-11-29T01:06:08.656Z,930.47
2017-11-29T01:06:21.331Z,930.47
2017-11-29T01:06:34.473Z,930.39
2017-11-29T01:06:47.475Z,930.4
2017-11-29T01:07:00.629Z,930.36
2017-11-29T01:07:13.290Z,930.36
2017-11-29T01:07:26.474Z,930.37
2017-11-29T01:07:39.641Z,930.49
2017-11-29T01:07:52.795Z,930.31
2017-11-29T01:08:05.470Z,930.44
2017-11-29T01:08:18.628Z,930.41
2017-11-29T01:08:31.795Z,930.43
2017-11-29T01:08:44.940Z,930.5
2017-11-29T01:08:58.124Z,930.39
2017-11-29T01:09:11.193Z,930.43
2017-11-29T01:09:24.404Z,930.35
2017-11-29T01:09:37.472Z,930.43
2017-11-29T01:09:50.565Z,930.38
2017-11-29T01:10:03.208Z,930.38
2017-11-29T01:10:15.861Z,930.38
2017-11-29T01:10:28.513Z,930.42
2017-11-29T01:10:41.636Z,930.39
2017-11-29T01:10:54.812Z,930.36
2017-11-29T01:11:07.938Z,930.38
2017-11-29T01:11:20.612Z,930.37
2017-11-29T01:11:33.240Z,930.4
2017-11-29T01:11:45.872Z,930.42
2017-11-29T01:11:59.031Z,930.4
2017-11-29T01:12:11.671Z,930.41
2017-11-29T01:12:24.799Z,930.41
2017-11-29T01:12:37.472Z,930.39
2017-11-29T01:12:50.589Z,930.46
2017-11-29T01:13:03.667Z,930.49
2017-11-29T01:13:16.764Z,930.39
2017-11-29T01:13:29.434Z,930.42
2017-11-29T01:13:42.594Z,930.36
2017-11-29T01:13:55.735Z,930.42
2017-11-29T01:14:08.393Z,930.45
2017-11-29T01:14:21.054Z,930.5
2017-11-29T01:14:34.147Z,930.45
2017-11-29T01:14:47.256Z,930.45
2017-11-29T01:14:59.978Z,930.5
2017-11-29T01:15:12.679Z,930.44
2017-11-29T01:15:25.845Z,930.47
2017-11-29T01:15:38.469Z,930.43
2017-11-29T01:15:51.613Z,930.46
2017-11-29T01:16:04.721Z,930.46
2017-11-29T01:16:17.389Z,930.41
2017-11-29T01:16:30.554Z,930.55
2017-11-29T01:16:43.673Z,930.49
2017-11-29T01:16:56.304Z,930.47
2017-11-29T01:17:09.442Z,930.45
2017-11-29T01:17:22.075Z,930.48
2017-11-29T01:17:35.195Z,930.34
2017-11-29T01:17:48.317Z,930.39
2017-11-29T01:18:01.029Z,930.41
2017-11-29T01:18:14.160Z,930.39
2017-11-29T01:18:26.788Z,930.33
2017-11-29T01:18:39.892Z,930.37
2017-11-29T01:18:52.524Z,930.36
2017-11-29T01:19:05.200Z,930.31
2017-11-29T01:19:18.335Z,930.36
2017-11-29T01:19:31.472Z,930.31
2017-11-29T01:19:44.615Z,930.32
2017-11-29T01:19:57.288Z,930.32
2017-11-29T01:20:09.948Z,930.28
2017-11-29T01:20:23.089Z,930.31
2017-11-29T01:20:36.229Z,930.31
2017-11-29T01:20:49.346Z,930.34
2017-11-29T01:21:02.055Z,930.33
2017-11-29T01:21:14.710Z,930.3
2017-11-29T01:21:26.878Z,930.34
2017-11-29T01:21:39.059Z,930.32
2017-11-29T01:21:52.914Z,930.32
2017-11-29T01:22:05.569Z,930.3
2017-11-29T01:22:18.710Z,930.3
2017-11-29T01:22:31.838Z,930.29
2017-11-29T01:22:45.023Z,930.3
2017-11-29T01:22:57.689Z,930.34
2017-11-29T01:23:10.797Z,930.32
2017-11-29T01:23:23.948Z,930.37
2017-11-29T01:23:37.066Z,930.33
2017-11-29T01:23:50.151Z,930.35
2017-11-29T01:24:03.267Z,930.36
2017-11-29T01:24:16.465Z,930.37
2017-11-29T01:24:29.578Z,930.32
2017-11-29T01:24:42.644Z,930.33
2017-11-29T01:24:55.257Z,930.33
2017-11-29T01:25:08.369Z,930.37
2017-11-29T01:25:21.440Z,930.39
2017-11-29T01:25:34.606Z,930.37
2017-11-29T01:25:46.787Z,930.41
2017-11-29T01:25:59.924Z,930.33
2017-11-29T01:26:13.053Z,930.31
2017-11-29T01:26:25.696Z,930.33
2017-11-29T01:26:38.923Z,930.4
2017-11-29T01:26:52.067Z,930.41
2017-11-29T01:27:04.683Z,930.43
2017-11-29T01:27:17.830Z,930.41
2017-11-29T01:27:30.951Z,930.36
2017-11-29T01:27:44.056Z,930.38
2017-11-29T01:27:56.742Z,930.42
2017-11-29T01:28:09.908Z,930.35
2017-11-29T01:28:23.006Z,930.37
2017-11-29T01:28:36.125Z,930.36
2017-11-29T01:28:49.212Z,930.35
2017-11-29T01:29:02.330Z,930.41
2017-11-29T01:29:15.476Z,930.38
2017-11-29T01:29:28.161Z,930.31
2017-11-29T01:29:41.360Z,930.33
2017-11-29T01:29:53.987Z,930.32
2017-11-29T01:30:07.160Z,930.31
2017-11-29T01:30:19.797Z,930.37
2017-11-29T01:30:32.464Z,930.38
2017-11-29T01:30:45.576Z,930.39
2017-11-29T01:30:58.709Z,930.38
2017-11-29T01:31:11.834Z,930.37
2017-11-29T01:31:24.931Z,930.37
2017-11-29T01:31:37.541Z,930.33
2017-11-29T01:31:50.676Z,930.31
2017-11-29T01:32:03.622Z,930.37
2017-11-29T01:32:16.793Z,930.28
2017-11-29T01:32:29.920Z,930.33
2017-11-29T01:32:43.066Z,930.3
2017-11-29T01:32:56.233Z,930.33
2017-11-29T01:33:08.886Z,930.28
2017-11-29T01:33:22.021Z,930.31
2017-11-29T01:33:35.188Z,930.28
2017-11-29T01:33:48.349Z,930.26
2017-11-29T01:34:01.410Z,930.31
2017-11-29T01:34:14.542Z,930.28
2017-11-29T01:34:27.697Z,930.31
2017-11-29T01:34:40.879Z,930.31
2017-11-29T01:34:54.035Z,930.27
2017-11-29T01:35:07.212Z,930.27
2017-11-29T01:35:20.323Z,930.28
2017-11-29T01:35:32.996Z,930.23
2017-11-29T01:35:46.170Z,930.28
2017-11-29T01:35:59.288Z,930.37
2017-11-29T01:36:12.417Z,930.36
2017-11-29T01:36:25.532Z,930.4
2017-11-29T01:36:38.689Z,930.26
2017-11-29T01:36:51.752Z,930.35
2017-11-29T01:37:05.673Z,930.28
2017-11-29T01:37:18.325Z,930.29
2017-11-29T01:37:31.417Z,930.32
2017-11-29T01:37:44.559Z,930.28
2017-11-29T01:37:57.655Z,930.27
2017-11-29T01:38:10.275Z,930.3
2017-11-29T01:38:23.416Z,930.31
2017-11-29T01:38:36.528Z,930.31
2017-11-29T01:38:49.651Z,930.33
2017-11-29T01:39:02.311Z,930.32
2017-11-29T01:39:15.457Z,930.3
2017-11-29T01:39:28.629Z,930.31
2017-11-29T01:39:41.757Z,930.33
2017-11-29T01:39:54.883Z,930.26
2017-11-29T01:40:07.574Z,930.28
2017-11-29T01:40:20.239Z,930.28
2017-11-29T01:40:33.372Z,930.27
2017-11-29T01:40:46.007Z,930.27
2017-11-29T01:40:59.189Z,930.25
2017-11-29T01:41:12.347Z,930.26
2017-11-29T01:41:25.449Z,930.32
2017-11-29T01:41:38.559Z,930.3
2017-11-29T01:41:51.672Z,930.31
2017-11-29T01:42:04.337Z,930.25
2017-11-29T01:42:17.432Z,930.29
2017-11-29T01:42:30.502Z,930.29
2017-11-29T01:42:43.157Z,930.28
2017-11-29T01:42:55.839Z,930.32
2017-11-29T01:43:08.981Z,930.28
2017-11-29T01:43:22.154Z,930.27
2017-11-29T01:43:35.393Z,930.33
2017-11-29T01:43:48.083Z,930.28
2017-11-29T01:44:01.248Z,930.24
2017-11-29T01:44:14.286Z,930.22
2017-11-29T01:44:27.429Z,930.25
2017-11-29T01:44:40.557Z,930.23
2017-11-29T01:44:53.224Z,930.26
2017-11-29T01:45:05.916Z,930.28
2017-11-29T01:45:19.024Z,930.25
2017-11-29T01:45:32.089Z,930.22
2017-11-29T01:45:45.222Z,930.22
2017-11-29T01:45:57.846Z,930.29
2017-11-29T01:46:10.484Z,930.31
2017-11-29T01:46:23.590Z,930.3
2017-11-29T01:46:36.754Z,930.24
2017-11-29T01:46:49.449Z,930.23
2017-11-29T01:47:02.554Z,930.2
2017-11-29T01:47:15.638Z,930.18
2017-11-29T01:47:28.780Z,930.2
2017-11-29T01:47:41.865Z,930.22
2017-11-29T01:47:54.966Z,930.2
2017-11-29T01:48:08.109Z,930.22
2017-11-29T01:48:21.245Z,930.21
2017-11-29T01:48:34.374Z,930.2
2017-11-29T01:48:47.532Z,930.24
2017-11-29T01:49:00.663Z,930.24
2017-11-29T01:49:13.808Z,930.26
2017-11-29T01:49:26.943Z,930.25
2017-11-29T01:49:40.062Z,930.27
2017-11-29T01:49:53.174Z,930.27
2017-11-29T01:50:06.328Z,930.22
2017-11-29T01:50:18.976Z,930.23
2017-11-29T01:50:32.141Z,930.23
2017-11-29T01:50:44.788Z,930.28
2017-11-29T01:50:57.953Z,930.36
2017-11-29T01:51:11.109Z,930.29
2017-11-29T01:51:24.224Z,930.34
2017-11-29T01:51:37.593Z,930.3
2017-11-29T01:51:50.279Z,930.3
2017-11-29T01:52:04.200Z,930.34
2017-11-29T01:52:17.362Z,930.31
2017-11-29T01:52:30.623Z,930.35
2017-11-29T01:52:43.802Z,930.36
2017-11-29T01:52:57.002Z,930.29
2017-11-29T01:53:10.101Z,930.29
2017-11-29T01:53:23.241Z,930.3
2017-11-29T01:53:36.394Z,930.32
2017-11-29T01:53:49.601Z,930.31
2017-11-29T01:54:02.732Z,930.29
2017-11-29T01:54:15.381Z,930.29
2017-11-29T01:54:28.117Z,930.32
2017-11-29T01:54:40.810Z,930.33
2017-11-29T01:54:53.980Z,930.31
2017-11-29T01:55:07.109Z,930.3
2017-11-29T01:55:20.242Z,930.32
2017-11-29T01:55:32.857Z,930.29
2017-11-29T01:55:45.528Z,930.26
2017-11-29T01:55:58.628Z,930.23
2017-11-29T01:56:11.771Z,930.3
2017-11-29T01:56:24.504Z,930.27
2017-11-29T01:56:37.621Z,930.29
2017-11-29T01:56:50.742Z,930.29
2017-11-29T01:57:03.884Z,930.27
2017-11-29T01:57:16.981Z,930.32
2017-11-29T01:57:30.156Z,930.23
2017-11-29T01:57:43.279Z,930.29
2017-11-29T01:57:56.454Z,930.2
2017-11-29T01:58:09.154Z,930.22
2017-11-29T01:58:22.322Z,930.24
2017-11-29T01:58:35.471Z,930.23
2017-11-29T01:58:48.600Z,930.23
2017-11-29T01:59:01.732Z,930.3
2017-11-29T01:59:14.873Z,930.23
2017-11-29T01:59:28.028Z,930.23
2017-11-29T01:59:41.134Z,930.27
2017-11-29T01:59:54.295Z,930.19
2017-11-29T02:00:07.418Z,930.25
2017-11-29T02:00:20.036Z,930.19
2017-11-29T02:00:33.184Z,930.2
2017-11-29T02:00:46.293Z,930.2
2017-11-29T02:00:59.016Z,930.21
2017-11-29T02:01:12.129Z,930.21
2017-11-29T02:01:24.802Z,930.21
2017-11-29T02:01:37.428Z,930.23
2017-11-29T02:01:50.510Z,930.26
2017-11-29T02:02:03.604Z,930.24
2017-11-29T02:02:16.512Z,930.17
2017-11-29T02:02:29.697Z,930.18
2017-11-29T02:02:42.305Z,930.22
2017-11-29T02:02:55.464Z,930.2
2017-11-29T02:03:08.104Z,930.25
2017-11-29T02:03:21.226Z,930.28
2017-11-29T02:03:34.377Z,930.21
2017-11-29T02:03:47.557Z,930.15
2017-11-29T02:04:00.235Z,930.18
2017-11-29T02:04:12.414Z,930.19
2017-11-29T02:04:25.086Z,930.18
2017-11-29T02:04:38.255Z,930.15
2017-11-29T02:04:51.389Z,930.16
2017-11-29T02:05:04.501Z,930.26
2017-11-29T02:05:17.217Z,930.17
2017-11-29T02:05:30.385Z,930.16
2017-11-29T02:05:43.534Z,930.18
2017-11-29T02:05:56.697Z,930.24
2017-11-29T02:06:09.399Z,930.2
2017-11-29T02:06:22.020Z,930.17
2017-11-29T02:06:35.172Z,930.22
2017-11-29T02:06:48.297Z,930.2
2017-11-29T02:07:01.457Z,930.19
2017-11-29T02:07:14.693Z,930.17
2017-11-29T02:07:27.888Z,930.19
2017-11-29T02:07:41.010Z,930.15
2017-11-29T02:07:53.748Z,930.18
2017-11-29T02:08:06.918Z,930.18
2017-11-29T02:08:20.061Z,930.16
2017-11-29T02:08:33.198Z,930.23
2017-11-29T02:08:46.358Z,930.22
2017-11-29T02:08:58.981Z,930.12
2017-11-29T02:09:11.680Z,930.22
2017-11-29T02:09:24.318Z,930.19
2017-11-29T02:09:37.412Z,930.23
2017-11-29T02:09:50.578Z,930.19
2017-11-29T02:10:03.702Z,930.15
2017-11-29T02:10:16.815Z,930.3
2017-11-29T02:10:29.462Z,930.17
2017-11-29T02:10:41.629Z,930.17
2017-11-29T02:10:54.757Z,930.21
2017-11-29T02:11:07.899Z,930.2
2017-11-29T02:11:20.525Z,930.2
2017-11-29T02:11:33.590Z,930.23
2017-11-29T02:11:46.226Z,930.18
2017-11-29T02:11:59.353Z,930.21
2017-11-29T02:12:12.628Z,930.27
2017-11-29T02:12:25.712Z,930.2
2017-11-29T02:12:38.786Z,930.19
2017-11-29T02:12:51.966Z,930.23
2017-11-29T02:13:04.614Z,930.18
2017-11-29T02:13:17.747Z,930.23
2017-11-29T02:13:30.425Z,930.18
2017-11-29T02:13:43.537Z,930.22
2017-11-29T02:13:56.608Z,930.13
2017-11-29T02:14:09.744Z,930.16
2017-11-29T02:14:22.854Z,930.19
2017-11-29T02:14:36.002Z,930.18
2017-11-29T02:14:49.122Z,930.22
2017-11-29T02:15:01.746Z,930.22
2017-11-29T02:15:14.868Z,930.18
2017-11-29T02:15:28.026Z,930.21
2017-11-29T02:15:40.720Z,930.22
2017-11-29T02:15:53.822Z,930.11
2017-11-29T02:16:06.479Z,930.12
2017-11-29T02:16:19.589Z,930.2
2017-11-29T02:16:32.641Z,930.17
2017-11-29T02:16:45.777Z,930.1
2017-11-29T02:16:58.958Z,930.06
2017-11-29T02:17:11.645Z,930.06
2017-11-29T02:17:24.772Z,930.13
2017-11-29T02:17:37.397Z,930.09
2017-11-29T02:17:50.581Z,930.13
2017-11-29T02:18:03.719Z,930.13
2017-11-29T02:18:16.358Z,930.12
2017-11-29T02:18:28.992Z,930.1
2017-11-29T02:18:42.149Z,930.17
2017-11-29T02:18:55.216Z,930.06
2017-11-29T02:19:08.391Z,930.08
2017-11-29T02:19:21.543Z,930.11
2017-11-29T02:19:34.724Z,930.1
2017-11-29T02:19:47.825Z,930.06
2017-11-29T02:20:00.956Z,930.08
2017-11-29T02:20:13.145Z,930.08
2017-11-29T02:20:26.247Z,930.17
2017-11-29T02:20:38.872Z,930.09
2017-11-29T02:20:51.527Z,930.1
2017-11-29T02:21:04.641Z,930.1
2017-11-29T02:21:17.316Z,930.11
2017-11-29T02:21:30.482Z,930.13
2017-11-29T02:21:43.604Z,930.12
2017-11-29T02:21:56.743Z,930.1
2017-11-29T02:22:09.877Z,930.14
2017-11-29T02:22:23.168Z,930.13
2017-11-29T02:22:35.843Z,930.14
2017-11-29T02:22:48.970Z,930.1
2017-11-29T02:23:01.596Z,930.06
2017-11-29T02:23:14.228Z,930.07
2017-11-29T02:23:26.852Z,930.14
2017-11-29T02:23:39.053Z,930.19
2017-11-29T02:23:52.179Z,930.12
2017-11-29T02:24:05.294Z,930.08
2017-11-29T02:24:17.924Z,930.12
2017-11-29T02:24:31.021Z,930.11
2017-11-29T02:24:44.127Z,930.06
2017-11-29T02:24:57.265Z,930.11
2017-11-29T02:25:09.955Z,930.17
2017-11-29T02:25:23.091Z,930.09
2017-11-29T02:25:36.287Z,930.05
2017-11-29T02:25:49.462Z,930.04
2017-11-29T02:26:02.598Z,930.03
2017-11-29T02:26:15.677Z,930.02
2017-11-29T02:26:28.779Z,930.01
2017-11-29T02:26:41.906Z,930.05
2017-11-29T02:26:55.015Z,930.03
2017-11-29T02:27:08.163Z,930
2017-11-29T02:27:20.747Z,929.96
2017-11-29T02:27:33.428Z,929.98
2017-11-29T02:27:46.555Z,930
2017-11-29T02:27:59.250Z,930.02
2017-11-29T02:28:11.929Z,929.97
2017-11-29T02:28:25.004Z,930.03
2017-11-29T02:28:37.226Z,929.99
2017-11-29T02:28:50.366Z,929.98
2017-11-29T02:29:03.064Z,929.99
2017-11-29T02:29:16.222Z,929.96
2017-11-29T02:29:29.351Z,929.99
2017-11-29T02:29:41.979Z,930
2017-11-29T02:29:55.162Z,930.01
2017-11-29T02:30:07.367Z,930.04
2017-11-29T02:30:20.523Z,930.02
2017-11-29T02:30:33.739Z,930
2017-11-29T02:30:46.380Z,929.98
2017-11-29T02:30:59.584Z,929.96
2017-11-29T02:31:12.683Z,930
2017-11-29T02:31:25.765Z,930.02
2017-11-29T02:31:38.947Z,929.93
2017-11-29T02:31:52.154Z,929.95
2017-11-29T02:32:05.286Z,930.02
2017-11-29T02:32:18.160Z,930.03
2017-11-29T02:32:31.313Z,929.99
2017-11-29T02:32:43.462Z,929.99
2017-11-29T02:32:56.119Z,930.01
2017-11-29T02:33:09.199Z,929.99
2017-11-29T02:33:22.351Z,929.94
2017-11-29T02:33:35.023Z,929.97
2017-11-29T02:33:48.192Z,930.01
2017-11-29T02:34:01.347Z,929.97
2017-11-29T02:34:14.534Z,929.97
2017-11-29T02:34:27.682Z,929.99
2017-11-29T02:34:40.375Z,929.99
2017-11-29T02:34:53.044Z,930
2017-11-29T02:35:06.179Z,930.01
2017-11-29T02:35:19.284Z,929.98
2017-11-29T02:35:32.368Z,930.08
2017-11-29T02:35:45.577Z,930
2017-11-29T02:35:58.682Z,929.99
2017-11-29T02:36:11.824Z,929.95
2017-11-29T02:36:24.963Z,929.97
2017-11-29T02:36:37.672Z,929.96
2017-11-29T02:36:50.849Z,929.95
2017-11-29T02:37:04.025Z,929.98
2017-11-29T02:37:17.064Z,929.95
2017-11-29T02:37:30.570Z,929.95
2017-11-29T02:37:43.193Z,929.96
2017-11-29T02:37:56.316Z,929.96
2017-11-29T02:38:08.944Z,929.96
2017-11-29T02:38:21.561Z,929.95
2017-11-29T02:38:34.779Z,929.96
2017-11-29T02:38:47.892Z,929.92
2017-11-29T02:39:00.576Z,929.95
2017-11-29T02:39:13.669Z,929.95
2017-11-29T02:39:26.849Z,929.95
2017-11-29T02:39:39.993Z,929.91
2017-11-29T02:39:52.169Z,929.98
2017-11-29T02:40:04.795Z,929.93
2017-11-29T02:40:17.940Z,929.96
2017-11-29T02:40:31.081Z,929.96
2017-11-29T02:40:44.165Z,929.91
2017-11-29T02:40:57.266Z,929.94
2017-11-29T02:41:09.951Z,929.91
2017-11-29T02:41:23.103Z,929.89
2017-11-29T02:41:36.220Z,929.93
2017-11-29T02:41:48.833Z,929.99
2017-11-29T02:42:01.966Z,929.97
2017-11-29T02:42:14.582Z,929.89
2017-11-29T02:42:27.319Z,929.88
2017-11-29T02:42:40.469Z,929.97